sensor_id;sensor_type;location;lat;lon;timestamp;P1;durP1;ratioP1;P2;durP2;ratioP2
5585;SDS011;2815;54.094;12.112;2022-09-09T00:01:37;24.17;;;13.15;;
5585;SDS011;2815;54.094;12.112;2022-09-09T00:04:12;20.40;;;13.13;;
5585;SDS011;2815;54.094;12.112;2022-09-09T00:06:43;26.45;;;14.10;;
5585;SDS011;2815;54.094;12.112;2022-09-09T00:09:15;21.90;;;13.63;;
5585;SDS011;2815;54.094;12.112;2022-09-09T00:11:47;24.70;;;13.38;;
5585;SDS011;2815;54.094;12.112;2022-09-09T00:14:18;21.55;;;13.90;;
5585;SDS011;2815;54.094;12.112;2022-09-09T00:16:53;24.52;;;13.90;;
5585;SDS011;2815;54.094;12.112;2022-09-09T00:19:24;24.80;;;14.18;;
5585;SDS011;2815;54.094;12.112;2022-09-09T00:21:58;27.73;;;15.23;;
5585;SDS011;2815;54.094;12.112;2022-09-09T00:24:32;24.48;;;14.43;;
5585;SDS011;2815;54.094;12.112;2022-09-09T00:27:08;24.13;;;14.45;;
5585;SDS011;2815;54.094;12.112;2022-09-09T00:29:45;23.50;;;13.25;;
5585;SDS011;2815;54.094;12.112;2022-09-09T00:32:16;24.25;;;14.50;;
5585;SDS011;2815;54.094;12.112;2022-09-09T00:34:47;25.95;;;14.25;;
5585;SDS011;2815;54.094;12.112;2022-09-09T00:37:18;25.33;;;12.88;;
5585;SDS011;2815;54.094;12.112;2022-09-09T00:39:47;25.73;;;13.15;;
5585;SDS011;2815;54.094;12.112;2022-09-09T00:42:20;25.20;;;14.07;;
5585;SDS011;2815;54.094;12.112;2022-09-09T00:44:53;25.05;;;13.43;;
5585;SDS011;2815;54.094;12.112;2022-09-09T00:47:30;24.02;;;12.13;;
5585;SDS011;2815;54.094;12.112;2022-09-09T00:50:12;25.95;;;14.32;;
5585;SDS011;2815;54.094;12.112;2022-09-09T00:52:53;26.33;;;13.68;;
5585;SDS011;2815;54.094;12.112;2022-09-09T00:55:26;24.20;;;12.93;;
5585;SDS011;2815;54.094;12.112;2022-09-09T00:58:00;24.60;;;14.05;;
5585;SDS011;2815;54.094;12.112;2022-09-09T01:00:30;26.40;;;14.25;;
5585;SDS011;2815;54.094;12.112;2022-09-09T01:03:05;22.50;;;12.02;;
5585;SDS011;2815;54.094;12.112;2022-09-09T01:05:54;23.35;;;12.43;;
5585;SDS011;2815;54.094;12.112;2022-09-09T01:08:36;27.30;;;14.30;;
5585;SDS011;2815;54.094;12.112;2022-09-09T01:11:10;23.48;;;13.43;;
5585;SDS011;2815;54.094;12.112;2022-09-09T01:13:45;26.80;;;12.98;;
5585;SDS011;2815;54.094;12.112;2022-09-09T01:19:20;21.15;;;11.02;;
5585;SDS011;2815;54.094;12.112;2022-09-09T01:21:55;19.98;;;11.27;;
5585;SDS011;2815;54.094;12.112;2022-09-09T01:24:32;17.13;;;10.75;;
5585;SDS011;2815;54.094;12.112;2022-09-09T01:27:17;20.17;;;10.55;;
5585;SDS011;2815;54.094;12.112;2022-09-09T01:29:47;17.63;;;10.80;;
5585;SDS011;2815;54.094;12.112;2022-09-09T01:35:10;17.42;;;10.43;;
5585;SDS011;2815;54.094;12.112;2022-09-09T01:37:39;20.65;;;12.35;;
5585;SDS011;2815;54.094;12.112;2022-09-09T01:40:08;18.40;;;11.10;;
5585;SDS011;2815;54.094;12.112;2022-09-09T01:42:38;20.23;;;10.93;;
5585;SDS011;2815;54.094;12.112;2022-09-09T01:45:07;20.50;;;11.27;;
5585;SDS011;2815;54.094;12.112;2022-09-09T01:47:36;18.85;;;10.90;;
5585;SDS011;2815;54.094;12.112;2022-09-09T01:50:14;20.55;;;11.20;;
5585;SDS011;2815;54.094;12.112;2022-09-09T01:52:44;17.58;;;10.27;;
5585;SDS011;2815;54.094;12.112;2022-09-09T01:55:15;17.63;;;10.55;;
5585;SDS011;2815;54.094;12.112;2022-09-09T01:57:47;17.15;;;9.68;;
5585;SDS011;2815;54.094;12.112;2022-09-09T02:00:19;14.38;;;9.18;;
5585;SDS011;2815;54.094;12.112;2022-09-09T02:02:55;17.30;;;9.85;;
5585;SDS011;2815;54.094;12.112;2022-09-09T02:05:38;15.85;;;9.45;;
5585;SDS011;2815;54.094;12.112;2022-09-09T02:08:17;18.92;;;9.65;;
5585;SDS011;2815;54.094;12.112;2022-09-09T02:10:58;18.40;;;10.20;;
5585;SDS011;2815;54.094;12.112;2022-09-09T02:13:39;17.92;;;10.18;;
5585;SDS011;2815;54.094;12.112;2022-09-09T02:16:12;19.48;;;10.55;;
5585;SDS011;2815;54.094;12.112;2022-09-09T02:18:44;19.77;;;10.52;;
5585;SDS011;2815;54.094;12.112;2022-09-09T02:21:18;18.67;;;11.05;;
5585;SDS011;2815;54.094;12.112;2022-09-09T02:23:46;18.50;;;10.23;;
5585;SDS011;2815;54.094;12.112;2022-09-09T02:26:15;17.05;;;9.95;;
5585;SDS011;2815;54.094;12.112;2022-09-09T02:28:54;16.58;;;9.25;;
5585;SDS011;2815;54.094;12.112;2022-09-09T02:31:23;20.05;;;10.18;;
5585;SDS011;2815;54.094;12.112;2022-09-09T02:33:58;15.70;;;9.52;;
5585;SDS011;2815;54.094;12.112;2022-09-09T02:36:28;16.70;;;9.43;;
5585;SDS011;2815;54.094;12.112;2022-09-09T02:38:59;14.73;;;9.23;;
5585;SDS011;2815;54.094;12.112;2022-09-09T02:41:32;16.48;;;9.63;;
5585;SDS011;2815;54.094;12.112;2022-09-09T02:44:05;15.75;;;9.73;;
5585;SDS011;2815;54.094;12.112;2022-09-09T02:46:37;18.63;;;9.80;;
5585;SDS011;2815;54.094;12.112;2022-09-09T02:49:18;15.20;;;9.05;;
5585;SDS011;2815;54.094;12.112;2022-09-09T02:51:51;16.65;;;9.40;;
5585;SDS011;2815;54.094;12.112;2022-09-09T02:54:22;17.85;;;9.95;;
5585;SDS011;2815;54.094;12.112;2022-09-09T02:56:54;16.27;;;10.00;;
5585;SDS011;2815;54.094;12.112;2022-09-09T02:59:32;17.65;;;10.02;;
5585;SDS011;2815;54.094;12.112;2022-09-09T03:02:01;18.17;;;10.18;;
5585;SDS011;2815;54.094;12.112;2022-09-09T03:04:30;19.75;;;11.07;;
5585;SDS011;2815;54.094;12.112;2022-09-09T03:06:58;18.05;;;9.93;;
5585;SDS011;2815;54.094;12.112;2022-09-09T03:09:27;22.95;;;11.48;;
5585;SDS011;2815;54.094;12.112;2022-09-09T03:11:55;17.88;;;11.02;;
5585;SDS011;2815;54.094;12.112;2022-09-09T03:14:25;18.95;;;11.13;;
5585;SDS011;2815;54.094;12.112;2022-09-09T03:16:54;18.00;;;10.93;;
5585;SDS011;2815;54.094;12.112;2022-09-09T03:19:23;20.00;;;11.68;;
5585;SDS011;2815;54.094;12.112;2022-09-09T03:21:52;22.35;;;12.15;;
5585;SDS011;2815;54.094;12.112;2022-09-09T03:24:20;20.90;;;11.80;;
5585;SDS011;2815;54.094;12.112;2022-09-09T03:26:49;20.65;;;11.68;;
5585;SDS011;2815;54.094;12.112;2022-09-09T03:29:17;22.63;;;12.13;;
5585;SDS011;2815;54.094;12.112;2022-09-09T03:31:45;24.98;;;12.80;;
5585;SDS011;2815;54.094;12.112;2022-09-09T03:34:14;22.58;;;13.00;;
5585;SDS011;2815;54.094;12.112;2022-09-09T03:36:42;26.67;;;13.80;;
5585;SDS011;2815;54.094;12.112;2022-09-09T03:39:10;23.65;;;12.13;;
5585;SDS011;2815;54.094;12.112;2022-09-09T03:41:41;22.55;;;12.45;;
5585;SDS011;2815;54.094;12.112;2022-09-09T03:44:13;23.00;;;12.75;;
5585;SDS011;2815;54.094;12.112;2022-09-09T03:46:42;25.52;;;13.27;;
5585;SDS011;2815;54.094;12.112;2022-09-09T03:49:10;26.00;;;14.45;;
5585;SDS011;2815;54.094;12.112;2022-09-09T03:51:40;25.85;;;14.48;;
5585;SDS011;2815;54.094;12.112;2022-09-09T03:54:11;24.10;;;13.20;;
5585;SDS011;2815;54.094;12.112;2022-09-09T03:56:39;25.23;;;13.77;;
5585;SDS011;2815;54.094;12.112;2022-09-09T03:59:10;24.02;;;13.35;;
5585;SDS011;2815;54.094;12.112;2022-09-09T04:01:41;23.67;;;13.45;;
5585;SDS011;2815;54.094;12.112;2022-09-09T04:04:09;22.80;;;13.38;;
5585;SDS011;2815;54.094;12.112;2022-09-09T04:06:41;24.67;;;13.07;;
5585;SDS011;2815;54.094;12.112;2022-09-09T04:09:09;23.63;;;11.98;;
5585;SDS011;2815;54.094;12.112;2022-09-09T04:11:37;23.48;;;12.60;;
5585;SDS011;2815;54.094;12.112;2022-09-09T04:14:05;24.25;;;13.27;;
5585;SDS011;2815;54.094;12.112;2022-09-09T04:16:34;21.50;;;12.57;;
5585;SDS011;2815;54.094;12.112;2022-09-09T04:19:04;24.60;;;12.45;;
5585;SDS011;2815;54.094;12.112;2022-09-09T04:21:33;23.45;;;12.82;;
5585;SDS011;2815;54.094;12.112;2022-09-09T04:24:03;23.70;;;13.63;;
5585;SDS011;2815;54.094;12.112;2022-09-09T04:26:31;25.17;;;14.05;;
5585;SDS011;2815;54.094;12.112;2022-09-09T04:28:59;25.10;;;14.15;;
5585;SDS011;2815;54.094;12.112;2022-09-09T04:31:27;24.55;;;12.50;;
5585;SDS011;2815;54.094;12.112;2022-09-09T04:33:56;28.67;;;14.55;;
5585;SDS011;2815;54.094;12.112;2022-09-09T04:36:25;30.17;;;14.43;;
5585;SDS011;2815;54.094;12.112;2022-09-09T04:38:57;29.33;;;14.27;;
5585;SDS011;2815;54.094;12.112;2022-09-09T04:41:27;31.10;;;14.90;;
5585;SDS011;2815;54.094;12.112;2022-09-09T04:43:55;31.75;;;15.73;;
5585;SDS011;2815;54.094;12.112;2022-09-09T04:46:23;29.30;;;14.23;;
5585;SDS011;2815;54.094;12.112;2022-09-09T04:48:51;28.13;;;14.02;;
5585;SDS011;2815;54.094;12.112;2022-09-09T04:51:21;26.73;;;13.45;;
5585;SDS011;2815;54.094;12.112;2022-09-09T04:53:51;29.80;;;14.20;;
5585;SDS011;2815;54.094;12.112;2022-09-09T04:56:20;29.35;;;14.48;;
5585;SDS011;2815;54.094;12.112;2022-09-09T04:58:56;29.65;;;14.65;;
5585;SDS011;2815;54.094;12.112;2022-09-09T05:01:36;29.73;;;15.13;;
5585;SDS011;2815;54.094;12.112;2022-09-09T05:04:05;26.58;;;14.13;;
5585;SDS011;2815;54.094;12.112;2022-09-09T05:06:33;30.02;;;13.48;;
5585;SDS011;2815;54.094;12.112;2022-09-09T05:09:18;28.35;;;13.95;;
5585;SDS011;2815;54.094;12.112;2022-09-09T05:11:46;32.55;;;12.95;;
5585;SDS011;2815;54.094;12.112;2022-09-09T05:14:25;33.63;;;14.15;;
5585;SDS011;2815;54.094;12.112;2022-09-09T05:16:54;29.92;;;13.15;;
5585;SDS011;2815;54.094;12.112;2022-09-09T05:19:23;34.42;;;13.13;;
5585;SDS011;2815;54.094;12.112;2022-09-09T05:21:52;38.38;;;14.95;;
5585;SDS011;2815;54.094;12.112;2022-09-09T05:24:30;33.45;;;13.77;;
5585;SDS011;2815;54.094;12.112;2022-09-09T05:27:00;32.70;;;14.23;;
5585;SDS011;2815;54.094;12.112;2022-09-09T05:29:30;34.75;;;15.43;;
5585;SDS011;2815;54.094;12.112;2022-09-09T05:32:01;39.72;;;16.73;;
5585;SDS011;2815;54.094;12.112;2022-09-09T05:34:29;42.55;;;17.88;;
5585;SDS011;2815;54.094;12.112;2022-09-09T05:36:59;39.20;;;17.42;;
5585;SDS011;2815;54.094;12.112;2022-09-09T05:39:27;40.22;;;17.25;;
5585;SDS011;2815;54.094;12.112;2022-09-09T05:41:55;37.65;;;18.00;;
5585;SDS011;2815;54.094;12.112;2022-09-09T05:44:24;37.42;;;17.65;;
5585;SDS011;2815;54.094;12.112;2022-09-09T05:46:58;37.15;;;17.45;;
5585;SDS011;2815;54.094;12.112;2022-09-09T05:49:29;41.90;;;19.33;;
5585;SDS011;2815;54.094;12.112;2022-09-09T05:52:00;43.00;;;18.75;;
5585;SDS011;2815;54.094;12.112;2022-09-09T05:54:34;39.38;;;18.38;;
5585;SDS011;2815;54.094;12.112;2022-09-09T05:57:05;39.50;;;18.63;;
5585;SDS011;2815;54.094;12.112;2022-09-09T05:59:33;40.63;;;18.25;;
5585;SDS011;2815;54.094;12.112;2022-09-09T06:02:03;36.15;;;17.92;;
5585;SDS011;2815;54.094;12.112;2022-09-09T06:04:34;42.20;;;18.10;;
5585;SDS011;2815;54.094;12.112;2022-09-09T06:07:04;38.22;;;18.70;;
5585;SDS011;2815;54.094;12.112;2022-09-09T06:09:32;41.10;;;18.92;;
5585;SDS011;2815;54.094;12.112;2022-09-09T06:12:00;40.15;;;18.30;;
5585;SDS011;2815;54.094;12.112;2022-09-09T06:14:31;37.22;;;17.90;;
5585;SDS011;2815;54.094;12.112;2022-09-09T06:17:00;38.67;;;18.20;;
5585;SDS011;2815;54.094;12.112;2022-09-09T06:19:31;34.17;;;17.10;;
5585;SDS011;2815;54.094;12.112;2022-09-09T06:21:59;31.20;;;15.80;;
5585;SDS011;2815;54.094;12.112;2022-09-09T06:24:30;32.63;;;16.50;;
5585;SDS011;2815;54.094;12.112;2022-09-09T06:27:00;27.80;;;14.80;;
5585;SDS011;2815;54.094;12.112;2022-09-09T06:29:32;30.27;;;15.20;;
5585;SDS011;2815;54.094;12.112;2022-09-09T06:32:01;26.67;;;13.73;;
5585;SDS011;2815;54.094;12.112;2022-09-09T06:34:31;27.80;;;14.07;;
5585;SDS011;2815;54.094;12.112;2022-09-09T06:36:59;30.20;;;14.05;;
5585;SDS011;2815;54.094;12.112;2022-09-09T06:39:48;26.58;;;13.05;;
5585;SDS011;2815;54.094;12.112;2022-09-09T06:42:17;26.17;;;13.65;;
5585;SDS011;2815;54.094;12.112;2022-09-09T06:44:54;27.50;;;13.10;;
5585;SDS011;2815;54.094;12.112;2022-09-09T06:47:43;27.27;;;13.65;;
5585;SDS011;2815;54.094;12.112;2022-09-09T06:50:12;27.42;;;13.63;;
5585;SDS011;2815;54.094;12.112;2022-09-09T06:52:41;23.83;;;12.75;;
5585;SDS011;2815;54.094;12.112;2022-09-09T06:55:09;26.33;;;12.90;;
5585;SDS011;2815;54.094;12.112;2022-09-09T06:57:37;27.85;;;12.93;;
5585;SDS011;2815;54.094;12.112;2022-09-09T07:00:11;25.05;;;13.00;;
5585;SDS011;2815;54.094;12.112;2022-09-09T07:02:40;26.38;;;12.77;;
5585;SDS011;2815;54.094;12.112;2022-09-09T07:05:09;24.77;;;12.25;;
5585;SDS011;2815;54.094;12.112;2022-09-09T07:07:40;26.08;;;13.02;;
5585;SDS011;2815;54.094;12.112;2022-09-09T07:10:10;26.52;;;12.50;;
5585;SDS011;2815;54.094;12.112;2022-09-09T07:12:39;28.92;;;13.50;;
5585;SDS011;2815;54.094;12.112;2022-09-09T07:15:09;28.42;;;13.65;;
5585;SDS011;2815;54.094;12.112;2022-09-09T07:17:41;28.30;;;13.93;;
5585;SDS011;2815;54.094;12.112;2022-09-09T07:20:09;30.60;;;15.23;;
5585;SDS011;2815;54.094;12.112;2022-09-09T07:22:37;28.65;;;14.55;;
5585;SDS011;2815;54.094;12.112;2022-09-09T07:25:07;28.50;;;14.20;;
5585;SDS011;2815;54.094;12.112;2022-09-09T07:27:36;26.45;;;15.00;;
5585;SDS011;2815;54.094;12.112;2022-09-09T07:30:04;27.58;;;14.65;;
5585;SDS011;2815;54.094;12.112;2022-09-09T07:32:34;24.55;;;14.60;;
5585;SDS011;2815;54.094;12.112;2022-09-09T07:35:02;24.98;;;14.02;;
5585;SDS011;2815;54.094;12.112;2022-09-09T07:37:30;30.92;;;14.43;;
5585;SDS011;2815;54.094;12.112;2022-09-09T07:39:58;25.13;;;14.07;;
5585;SDS011;2815;54.094;12.112;2022-09-09T07:42:28;28.60;;;14.90;;
5585;SDS011;2815;54.094;12.112;2022-09-09T07:44:57;23.13;;;13.43;;
5585;SDS011;2815;54.094;12.112;2022-09-09T07:47:25;29.38;;;15.95;;
5585;SDS011;2815;54.094;12.112;2022-09-09T07:49:53;29.23;;;15.57;;
5585;SDS011;2815;54.094;12.112;2022-09-09T07:52:26;29.35;;;15.18;;
5585;SDS011;2815;54.094;12.112;2022-09-09T07:54:58;28.67;;;14.55;;
5585;SDS011;2815;54.094;12.112;2022-09-09T07:57:30;26.23;;;14.02;;
5585;SDS011;2815;54.094;12.112;2022-09-09T07:59:58;31.02;;;15.05;;
5585;SDS011;2815;54.094;12.112;2022-09-09T08:02:27;26.08;;;13.75;;
5585;SDS011;2815;54.094;12.112;2022-09-09T08:04:56;26.75;;;14.85;;
5585;SDS011;2815;54.094;12.112;2022-09-09T08:07:24;24.02;;;14.63;;
5585;SDS011;2815;54.094;12.112;2022-09-09T08:09:53;24.73;;;13.90;;
5585;SDS011;2815;54.094;12.112;2022-09-09T08:12:26;25.90;;;13.73;;
5585;SDS011;2815;54.094;12.112;2022-09-09T08:14:56;23.92;;;13.95;;
5585;SDS011;2815;54.094;12.112;2022-09-09T08:17:28;27.55;;;14.90;;
5585;SDS011;2815;54.094;12.112;2022-09-09T08:19:59;27.70;;;14.55;;
5585;SDS011;2815;54.094;12.112;2022-09-09T08:22:31;31.63;;;14.70;;
5585;SDS011;2815;54.094;12.112;2022-09-09T08:25:00;24.42;;;14.25;;
5585;SDS011;2815;54.094;12.112;2022-09-09T08:27:30;23.92;;;13.55;;
5585;SDS011;2815;54.094;12.112;2022-09-09T08:30:00;21.75;;;12.27;;
5585;SDS011;2815;54.094;12.112;2022-09-09T08:32:29;19.20;;;12.18;;
5585;SDS011;2815;54.094;12.112;2022-09-09T08:34:57;20.98;;;12.80;;
5585;SDS011;2815;54.094;12.112;2022-09-09T08:37:28;19.33;;;12.40;;
5585;SDS011;2815;54.094;12.112;2022-09-09T08:39:56;19.27;;;11.95;;
5585;SDS011;2815;54.094;12.112;2022-09-09T08:42:33;20.02;;;11.48;;
5585;SDS011;2815;54.094;12.112;2022-09-09T08:45:12;16.48;;;10.35;;
5585;SDS011;2815;54.094;12.112;2022-09-09T08:47:50;19.90;;;11.13;;
5585;SDS011;2815;54.094;12.112;2022-09-09T08:50:23;20.30;;;11.20;;
5585;SDS011;2815;54.094;12.112;2022-09-09T08:53:05;16.95;;;11.00;;
5585;SDS011;2815;54.094;12.112;2022-09-09T08:55:40;17.52;;;10.77;;
5585;SDS011;2815;54.094;12.112;2022-09-09T08:58:12;20.58;;;11.45;;
5585;SDS011;2815;54.094;12.112;2022-09-09T09:03:15;17.13;;;10.48;;
5585;SDS011;2815;54.094;12.112;2022-09-09T09:05:51;17.75;;;10.70;;
5585;SDS011;2815;54.094;12.112;2022-09-09T09:08:25;16.58;;;10.70;;
5585;SDS011;2815;54.094;12.112;2022-09-09T09:13:30;15.35;;;10.55;;
5585;SDS011;2815;54.094;12.112;2022-09-09T09:16:04;18.50;;;10.98;;
5585;SDS011;2815;54.094;12.112;2022-09-09T09:18:37;18.00;;;10.68;;
5585;SDS011;2815;54.094;12.112;2022-09-09T09:21:07;14.68;;;10.07;;
5585;SDS011;2815;54.094;12.112;2022-09-09T09:23:41;20.35;;;10.07;;
5585;SDS011;2815;54.094;12.112;2022-09-09T09:28:41;15.10;;;9.68;;
5585;SDS011;2815;54.094;12.112;2022-09-09T09:31:15;16.75;;;10.13;;
5585;SDS011;2815;54.094;12.112;2022-09-09T09:33:47;16.00;;;9.83;;
5585;SDS011;2815;54.094;12.112;2022-09-09T09:36:19;14.65;;;9.80;;
5585;SDS011;2815;54.094;12.112;2022-09-09T09:38:51;13.85;;;9.60;;
5585;SDS011;2815;54.094;12.112;2022-09-09T09:41:42;13.57;;;9.07;;
5585;SDS011;2815;54.094;12.112;2022-09-09T09:44:21;15.82;;;8.38;;
5585;SDS011;2815;54.094;12.112;2022-09-09T09:46:52;12.98;;;8.35;;
5585;SDS011;2815;54.094;12.112;2022-09-09T09:49:20;12.90;;;7.85;;
5585;SDS011;2815;54.094;12.112;2022-09-09T09:51:49;12.25;;;8.32;;
5585;SDS011;2815;54.094;12.112;2022-09-09T09:54:22;15.48;;;8.40;;
5585;SDS011;2815;54.094;12.112;2022-09-09T09:56:56;13.05;;;8.38;;
5585;SDS011;2815;54.094;12.112;2022-09-09T09:59:36;11.60;;;7.80;;
5585;SDS011;2815;54.094;12.112;2022-09-09T10:02:37;11.48;;;7.93;;
5585;SDS011;2815;54.094;12.112;2022-09-09T10:05:13;10.23;;;6.97;;
5585;SDS011;2815;54.094;12.112;2022-09-09T10:07:45;11.18;;;6.88;;
5585;SDS011;2815;54.094;12.112;2022-09-09T10:10:15;9.48;;;7.10;;
5585;SDS011;2815;54.094;12.112;2022-09-09T10:12:50;11.75;;;7.45;;
5585;SDS011;2815;54.094;12.112;2022-09-09T10:15:26;10.05;;;6.43;;
5585;SDS011;2815;54.094;12.112;2022-09-09T10:18:03;8.68;;;6.13;;
5585;SDS011;2815;54.094;12.112;2022-09-09T10:20:40;10.25;;;5.97;;
5585;SDS011;2815;54.094;12.112;2022-09-09T10:23:15;10.10;;;5.72;;
5585;SDS011;2815;54.094;12.112;2022-09-09T10:25:55;10.75;;;6.00;;
5585;SDS011;2815;54.094;12.112;2022-09-09T10:28:30;7.35;;;5.60;;
5585;SDS011;2815;54.094;12.112;2022-09-09T10:31:07;9.60;;;5.38;;
5585;SDS011;2815;54.094;12.112;2022-09-09T10:33:44;8.40;;;5.60;;
5585;SDS011;2815;54.094;12.112;2022-09-09T10:36:18;8.55;;;5.82;;
5585;SDS011;2815;54.094;12.112;2022-09-09T10:38:47;8.68;;;5.05;;
5585;SDS011;2815;54.094;12.112;2022-09-09T10:41:22;9.82;;;5.65;;
5585;SDS011;2815;54.094;12.112;2022-09-09T10:44:02;8.23;;;5.43;;
5585;SDS011;2815;54.094;12.112;2022-09-09T10:46:46;7.30;;;4.72;;
5585;SDS011;2815;54.094;12.112;2022-09-09T10:49:24;6.50;;;4.35;;
5585;SDS011;2815;54.094;12.112;2022-09-09T10:52:00;7.72;;;4.82;;
5585;SDS011;2815;54.094;12.112;2022-09-09T10:54:36;6.18;;;4.53;;
5585;SDS011;2815;54.094;12.112;2022-09-09T10:57:12;8.63;;;5.28;;
5585;SDS011;2815;54.094;12.112;2022-09-09T10:59:52;7.93;;;4.63;;
5585;SDS011;2815;54.094;12.112;2022-09-09T11:02:25;7.20;;;4.50;;
5585;SDS011;2815;54.094;12.112;2022-09-09T11:04:57;7.00;;;4.70;;
5585;SDS011;2815;54.094;12.112;2022-09-09T11:07:29;6.35;;;3.88;;
5585;SDS011;2815;54.094;12.112;2022-09-09T11:10:03;7.35;;;4.10;;
5585;SDS011;2815;54.094;12.112;2022-09-09T11:15:04;5.82;;;3.17;;
5585;SDS011;2815;54.094;12.112;2022-09-09T11:17:35;5.13;;;2.90;;
5585;SDS011;2815;54.094;12.112;2022-09-09T11:20:12;11.38;;;3.13;;
5585;SDS011;2815;54.094;12.112;2022-09-09T11:22:43;6.72;;;3.13;;
5585;SDS011;2815;54.094;12.112;2022-09-09T11:25:15;6.68;;;3.92;;
5585;SDS011;2815;54.094;12.112;2022-09-09T11:27:48;6.95;;;3.00;;
5585;SDS011;2815;54.094;12.112;2022-09-09T11:30:22;3.60;;;2.88;;
5585;SDS011;2815;54.094;12.112;2022-09-09T11:33:23;4.32;;;3.05;;
5585;SDS011;2815;54.094;12.112;2022-09-09T11:36:19;5.20;;;2.95;;
5585;SDS011;2815;54.094;12.112;2022-09-09T11:39:07;7.85;;;3.30;;
5585;SDS011;2815;54.094;12.112;2022-09-09T11:41:45;6.43;;;3.45;;
5585;SDS011;2815;54.094;12.112;2022-09-09T11:44:17;5.82;;;3.90;;
5585;SDS011;2815;54.094;12.112;2022-09-09T11:46:48;6.65;;;4.05;;
5585;SDS011;2815;54.094;12.112;2022-09-09T11:49:25;6.38;;;3.83;;
5585;SDS011;2815;54.094;12.112;2022-09-09T11:51:56;6.13;;;4.07;;
5585;SDS011;2815;54.094;12.112;2022-09-09T11:54:27;6.82;;;3.92;;
5585;SDS011;2815;54.094;12.112;2022-09-09T11:56:56;6.63;;;3.97;;
5585;SDS011;2815;54.094;12.112;2022-09-09T11:59:25;5.82;;;4.03;;
5585;SDS011;2815;54.094;12.112;2022-09-09T12:01:55;5.78;;;3.40;;
5585;SDS011;2815;54.094;12.112;2022-09-09T12:04:32;7.93;;;3.45;;
5585;SDS011;2815;54.094;12.112;2022-09-09T12:07:05;9.25;;;4.65;;
5585;SDS011;2815;54.094;12.112;2022-09-09T12:09:55;6.13;;;3.22;;
5585;SDS011;2815;54.094;12.112;2022-09-09T12:12:26;7.38;;;3.60;;
5585;SDS011;2815;54.094;12.112;2022-09-09T12:15:00;6.53;;;3.28;;
5585;SDS011;2815;54.094;12.112;2022-09-09T12:17:44;5.00;;;2.63;;
5585;SDS011;2815;54.094;12.112;2022-09-09T12:20:14;4.25;;;2.53;;
5585;SDS011;2815;54.094;12.112;2022-09-09T12:25:43;3.65;;;2.40;;
5585;SDS011;2815;54.094;12.112;2022-09-09T12:28:17;5.47;;;2.30;;
5585;SDS011;2815;54.094;12.112;2022-09-09T12:30:48;4.32;;;2.13;;
5585;SDS011;2815;54.094;12.112;2022-09-09T12:33:20;4.93;;;1.90;;
5585;SDS011;2815;54.094;12.112;2022-09-09T12:35:50;5.05;;;2.10;;
5585;SDS011;2815;54.094;12.112;2022-09-09T12:38:22;3.03;;;2.00;;
5585;SDS011;2815;54.094;12.112;2022-09-09T12:40:57;5.88;;;1.65;;
5585;SDS011;2815;54.094;12.112;2022-09-09T12:43:27;3.30;;;2.00;;
5585;SDS011;2815;54.094;12.112;2022-09-09T12:45:56;4.18;;;1.95;;
5585;SDS011;2815;54.094;12.112;2022-09-09T12:48:31;7.57;;;2.10;;
5585;SDS011;2815;54.094;12.112;2022-09-09T12:51:01;3.75;;;2.28;;
5585;SDS011;2815;54.094;12.112;2022-09-09T12:53:33;7.10;;;2.72;;
5585;SDS011;2815;54.094;12.112;2022-09-09T12:56:03;9.35;;;2.65;;
5585;SDS011;2815;54.094;12.112;2022-09-09T12:58:33;4.43;;;2.00;;
5585;SDS011;2815;54.094;12.112;2022-09-09T13:01:04;3.50;;;1.73;;
5585;SDS011;2815;54.094;12.112;2022-09-09T13:03:33;2.53;;;1.70;;
5585;SDS011;2815;54.094;12.112;2022-09-09T13:06:17;7.13;;;1.92;;
5585;SDS011;2815;54.094;12.112;2022-09-09T13:08:57;3.33;;;1.70;;
5585;SDS011;2815;54.094;12.112;2022-09-09T13:11:27;3.88;;;1.50;;
5585;SDS011;2815;54.094;12.112;2022-09-09T13:13:57;4.10;;;1.80;;
5585;SDS011;2815;54.094;12.112;2022-09-09T13:16:26;5.47;;;1.90;;
5585;SDS011;2815;54.094;12.112;2022-09-09T13:18:59;5.25;;;1.65;;
5585;SDS011;2815;54.094;12.112;2022-09-09T13:21:31;5.13;;;1.95;;
5585;SDS011;2815;54.094;12.112;2022-09-09T13:24:03;4.85;;;1.85;;
5585;SDS011;2815;54.094;12.112;2022-09-09T13:26:34;3.50;;;2.10;;
5585;SDS011;2815;54.094;12.112;2022-09-09T13:29:14;4.07;;;1.95;;
5585;SDS011;2815;54.094;12.112;2022-09-09T13:31:45;5.35;;;2.20;;
5585;SDS011;2815;54.094;12.112;2022-09-09T13:34:13;3.53;;;1.85;;
5585;SDS011;2815;54.094;12.112;2022-09-09T13:36:41;3.25;;;1.77;;
5585;SDS011;2815;54.094;12.112;2022-09-09T13:41:44;7.22;;;2.00;;
5585;SDS011;2815;54.094;12.112;2022-09-09T13:44:14;5.10;;;2.00;;
5585;SDS011;2815;54.094;12.112;2022-09-09T13:46:45;3.70;;;1.92;;
5585;SDS011;2815;54.094;12.112;2022-09-09T13:49:20;4.88;;;2.00;;
5585;SDS011;2815;54.094;12.112;2022-09-09T13:51:49;4.95;;;2.42;;
5585;SDS011;2815;54.094;12.112;2022-09-09T13:54:21;5.00;;;2.35;;
5585;SDS011;2815;54.094;12.112;2022-09-09T13:56:49;6.72;;;2.50;;
5585;SDS011;2815;54.094;12.112;2022-09-09T13:59:18;5.95;;;2.40;;
5585;SDS011;2815;54.094;12.112;2022-09-09T14:01:47;6.97;;;2.83;;
5585;SDS011;2815;54.094;12.112;2022-09-09T14:04:18;7.15;;;2.90;;
5585;SDS011;2815;54.094;12.112;2022-09-09T14:06:48;5.18;;;2.90;;
5585;SDS011;2815;54.094;12.112;2022-09-09T14:09:17;6.07;;;2.67;;
5585;SDS011;2815;54.094;12.112;2022-09-09T14:11:46;7.43;;;2.63;;
5585;SDS011;2815;54.094;12.112;2022-09-09T14:14:15;3.67;;;2.20;;
5585;SDS011;2815;54.094;12.112;2022-09-09T14:16:43;3.80;;;2.00;;
5585;SDS011;2815;54.094;12.112;2022-09-09T14:19:11;4.53;;;1.85;;
5585;SDS011;2815;54.094;12.112;2022-09-09T14:21:39;6.10;;;2.10;;
5585;SDS011;2815;54.094;12.112;2022-09-09T14:24:07;3.47;;;1.80;;
5585;SDS011;2815;54.094;12.112;2022-09-09T14:26:35;4.60;;;1.92;;
5585;SDS011;2815;54.094;12.112;2022-09-09T14:29:05;6.30;;;2.20;;
5585;SDS011;2815;54.094;12.112;2022-09-09T14:31:33;4.35;;;2.42;;
5585;SDS011;2815;54.094;12.112;2022-09-09T14:34:01;3.72;;;1.90;;
5585;SDS011;2815;54.094;12.112;2022-09-09T14:36:29;4.20;;;1.98;;
5585;SDS011;2815;54.094;12.112;2022-09-09T14:38:57;2.88;;;2.00;;
5585;SDS011;2815;54.094;12.112;2022-09-09T14:41:25;6.05;;;2.20;;
5585;SDS011;2815;54.094;12.112;2022-09-09T14:43:55;3.70;;;2.15;;
5585;SDS011;2815;54.094;12.112;2022-09-09T14:46:25;3.30;;;1.92;;
5585;SDS011;2815;54.094;12.112;2022-09-09T14:48:53;4.65;;;2.13;;
5585;SDS011;2815;54.094;12.112;2022-09-09T14:51:22;2.65;;;1.98;;
5585;SDS011;2815;54.094;12.112;2022-09-09T14:53:51;4.43;;;2.13;;
5585;SDS011;2815;54.094;12.112;2022-09-09T14:56:21;4.85;;;1.90;;
5585;SDS011;2815;54.094;12.112;2022-09-09T14:58:50;4.38;;;1.83;;
5585;SDS011;2815;54.094;12.112;2022-09-09T15:01:19;5.45;;;2.20;;
5585;SDS011;2815;54.094;12.112;2022-09-09T15:03:51;5.85;;;2.30;;
5585;SDS011;2815;54.094;12.112;2022-09-09T15:06:20;4.75;;;2.38;;
5585;SDS011;2815;54.094;12.112;2022-09-09T15:08:50;8.82;;;2.30;;
5585;SDS011;2815;54.094;12.112;2022-09-09T15:11:18;6.70;;;2.42;;
5585;SDS011;2815;54.094;12.112;2022-09-09T15:13:50;8.32;;;2.58;;
5585;SDS011;2815;54.094;12.112;2022-09-09T15:16:19;4.50;;;2.03;;
5585;SDS011;2815;54.094;12.112;2022-09-09T15:18:51;6.07;;;2.10;;
5585;SDS011;2815;54.094;12.112;2022-09-09T15:21:21;5.07;;;2.20;;
5585;SDS011;2815;54.094;12.112;2022-09-09T15:23:50;5.72;;;2.25;;
5585;SDS011;2815;54.094;12.112;2022-09-09T15:26:19;4.97;;;2.05;;
5585;SDS011;2815;54.094;12.112;2022-09-09T15:28:47;3.58;;;1.90;;
5585;SDS011;2815;54.094;12.112;2022-09-09T15:31:17;5.43;;;2.60;;
5585;SDS011;2815;54.094;12.112;2022-09-09T15:33:47;2.92;;;2.20;;
5585;SDS011;2815;54.094;12.112;2022-09-09T15:36:18;3.13;;;2.10;;